createdAt,value
2018-11-05T00:16:10.795Z,8.43
2018-11-05T00:36:03.421Z,8.38
2018-11-05T00:38:33.521Z,8.33
2018-11-05T00:41:03.502Z,8.26
2018-11-05T00:43:33.477Z,8.26
2018-11-05T00:46:03.592Z,8.16
2018-11-05T00:48:33.349Z,8.11
2018-11-05T01:08:26.766Z,7.95
2018-11-05T01:28:19.814Z,7.65
2018-11-05T01:30:49.914Z,7.67
2018-11-05T01:33:19.466Z,7.67
2018-11-05T01:35:49.517Z,7.66
2018-11-05T01:38:19.290Z,7.77
2018-11-05T01:40:48.977Z,7.75
2018-11-05T02:00:41.491Z,7.66
2018-11-05T02:03:11.265Z,7.72
2018-11-05T02:05:41.129Z,7.69
2018-11-05T02:08:11.090Z,7.66
2018-11-05T02:10:40.693Z,7.66
2018-11-05T02:13:10.445Z,7.62
2018-11-05T02:15:40.241Z,7.63
2018-11-05T02:18:09.954Z,7.61
2018-11-05T02:20:39.591Z,7.52
2018-11-05T02:23:09.675Z,7.54
2018-11-05T02:25:39.283Z,7.51
2018-11-05T02:45:30.963Z,7.45
2018-11-05T02:48:00.874Z,7.36
2018-11-05T02:50:30.637Z,7.37
2018-11-05T03:24:51.397Z,7.21
2018-11-05T03:27:21.635Z,7.13
2018-11-05T03:29:51.470Z,7.14
2018-11-05T03:32:21.217Z,7.10
2018-11-05T03:34:51.438Z,7.07
2018-11-05T03:54:43.182Z,7.16
2018-11-05T03:57:13.223Z,7.09
2018-11-05T03:59:42.889Z,7.02
2018-11-05T04:02:12.781Z,6.96
2018-11-05T04:22:04.465Z,6.94
2018-11-05T04:24:34.178Z,6.97
2018-11-05T04:27:03.813Z,7.04
2018-11-05T04:29:33.715Z,7.10
2018-11-05T04:49:25.843Z,6.99
2018-11-05T04:51:55.989Z,6.97
2018-11-05T04:54:26.060Z,7.02
2018-11-05T04:56:55.881Z,7.02
2018-11-05T05:16:47.658Z,6.95
2018-11-05T05:19:17.258Z,6.91
2018-11-05T05:39:10.626Z,7.27
2018-11-05T05:41:40.441Z,7.38
2018-11-05T05:44:09.894Z,7.35
2018-11-05T05:46:39.554Z,7.34
2018-11-05T05:49:09.352Z,7.30
2018-11-05T05:51:39.073Z,7.35
2018-11-05T05:54:09.037Z,7.36
2018-11-05T05:56:38.617Z,7.45
2018-11-05T05:59:08.171Z,7.60
2018-11-05T06:01:37.809Z,7.76
2018-11-05T06:21:28.555Z,8.33
2018-11-05T06:23:58.548Z,8.46
2018-11-05T06:26:28.011Z,8.67
2018-11-05T06:28:57.706Z,8.74
2018-11-05T06:31:31.064Z,8.80
2018-11-05T06:34:00.994Z,8.90
2018-11-05T06:53:53.005Z,9.30
2018-11-05T07:25:20.526Z,10.39
2018-11-05T07:45:20.147Z,11.11
2018-11-05T07:47:50.398Z,11.21
2018-11-05T07:50:21.302Z,11.44
2018-11-05T08:10:13.435Z,12.34
2018-11-05T08:12:43.519Z,12.33
2018-11-05T08:15:17.710Z,12.45
2018-11-05T08:35:10.757Z,13.17
2018-11-05T08:37:40.587Z,13.56
2018-11-05T08:40:12.458Z,13.56
2018-11-05T08:42:42.504Z,13.67
2018-11-05T09:02:34.446Z,15.01
2018-11-05T09:05:04.420Z,15.83
2018-11-05T09:07:34.075Z,15.94
2018-11-05T09:10:04.179Z,16.20
2018-11-05T09:12:34.145Z,16.47
2018-11-05T09:15:03.837Z,16.36
2018-11-05T09:17:34.037Z,16.38
2018-11-05T09:20:03.890Z,16.14
2018-11-05T09:22:33.798Z,16.28
2018-11-05T09:25:03.956Z,16.36
2018-11-05T09:27:33.967Z,16.38
2018-11-05T09:30:04.042Z,15.96
2018-11-05T09:49:55.844Z,17.59
2018-11-05T09:52:25.485Z,17.41
2018-11-05T09:54:55.169Z,17.19
2018-11-05T09:57:25.435Z,17.32
2018-11-05T09:59:55.430Z,17.27
2018-11-05T10:19:47.545Z,17.57
2018-11-05T10:22:17.853Z,17.52
2018-11-05T10:24:50.083Z,17.45
2018-11-05T10:27:19.659Z,17.63
2018-11-05T10:29:49.891Z,17.39
2018-11-05T10:49:42.905Z,17.13
2018-11-05T10:52:13.918Z,17.50
2018-11-05T10:54:43.769Z,17.52
2018-11-05T11:26:12.362Z,19.39
2018-11-05T11:28:42.103Z,19.40
2018-11-05T11:31:11.955Z,20.09
2018-11-05T11:33:42.004Z,20.61
2018-11-05T11:36:11.541Z,20.94
2018-11-05T11:38:41.189Z,21.14
2018-11-05T11:58:34.051Z,21.55
2018-11-05T12:01:03.969Z,22.35
2018-11-05T12:03:34.107Z,23.66
2018-11-05T12:23:26.758Z,28.12
2018-11-05T12:25:56.260Z,28.24
2018-11-05T12:28:26.211Z,28.53
2018-11-05T12:30:57.322Z,29.37
2018-11-05T12:33:27.490Z,28.46
2018-11-05T12:35:59.146Z,28.92
2018-11-05T12:38:30.298Z,29.38
2018-11-05T12:41:00.360Z,28.07
2018-11-05T12:43:29.959Z,28.80
2018-11-05T12:45:59.912Z,29.47
2018-11-05T12:48:29.884Z,30.14
2018-11-05T12:50:59.791Z,29.96
2018-11-05T12:53:29.660Z,30.70
2018-11-05T12:55:59.803Z,30.66
2018-11-05T12:58:29.570Z,30.07
2018-11-05T13:00:59.211Z,30.70
2018-11-05T13:03:29.203Z,29.83
2018-11-05T13:05:58.749Z,29.65
2018-11-05T13:08:28.750Z,29.87
2018-11-05T13:10:58.910Z,29.91
2018-11-05T13:13:28.850Z,29.45
2018-11-05T13:15:58.560Z,29.28
2018-11-05T13:18:28.735Z,29.16
2018-11-05T13:20:58.691Z,28.63
2018-11-05T13:23:33.889Z,28.91
2018-11-05T13:26:03.738Z,28.12
2018-11-05T13:28:33.964Z,28.24
2018-11-05T13:31:04.482Z,27.69
2018-11-05T13:33:34.258Z,28.04
2018-11-05T13:36:04.252Z,27.19
2018-11-05T13:38:34.340Z,26.44
2018-11-05T13:41:04.065Z,26.09
2018-11-05T13:43:33.830Z,26.33
2018-11-05T13:46:04.078Z,25.58
2018-11-05T13:48:33.829Z,25.51
2018-11-05T13:51:03.237Z,25.60
2018-11-05T13:53:33.038Z,26.10
2018-11-05T13:56:02.659Z,25.43
2018-11-05T13:58:32.618Z,25.84
2018-11-05T14:01:02.770Z,25.65
2018-11-05T14:03:32.510Z,25.42
2018-11-05T14:06:02.071Z,24.47
2018-11-05T14:08:31.892Z,24.37
2018-11-05T14:11:01.679Z,23.92
2018-11-05T14:13:31.481Z,22.80
2018-11-05T14:16:01.222Z,22.44
2018-11-05T14:18:31.122Z,22.16
2018-11-05T14:21:00.736Z,21.49
2018-11-05T14:23:30.717Z,21.46
2018-11-05T14:26:00.606Z,21.47
2018-11-05T14:28:30.742Z,21.01
2018-11-05T14:31:00.493Z,20.98
2018-11-05T14:33:30.366Z,20.76
2018-11-05T14:36:00.213Z,19.89
2018-11-05T14:38:30.235Z,19.87
2018-11-05T14:40:59.837Z,19.62
2018-11-05T14:43:29.594Z,19.39
2018-11-05T14:45:59.701Z,19.25
2018-11-05T14:48:29.573Z,19.15
2018-11-05T14:50:59.393Z,18.92
2018-11-05T14:53:29.873Z,18.67
2018-11-05T14:55:59.578Z,18.52
2018-11-05T14:58:29.041Z,18.39
2018-11-05T15:00:59.065Z,18.17
2018-11-05T15:29:33.551Z,16.95
2018-11-05T15:32:03.871Z,16.88
2018-11-05T15:34:33.891Z,16.71
2018-11-05T15:51:32.850Z,16.35
2018-11-05T15:54:02.100Z,16.19
2018-11-05T15:56:31.947Z,16.18
2018-11-05T15:59:02.040Z,16.15
2018-11-05T16:01:32.008Z,16.12
2018-11-05T16:04:01.480Z,16.31
2018-11-05T16:06:31.435Z,16.27
2018-11-05T16:09:00.871Z,15.93
2018-11-05T16:11:30.840Z,15.69
2018-11-05T16:14:00.650Z,15.66
2018-11-05T16:16:30.983Z,15.71
2018-11-05T16:19:01.056Z,15.63
2018-11-05T16:21:30.946Z,15.48
2018-11-05T16:24:01.145Z,15.47
2018-11-05T16:26:31.544Z,15.31
2018-11-05T16:29:01.781Z,15.22
2018-11-05T16:31:31.970Z,15.10
2018-11-05T16:34:02.176Z,15.03
2018-11-05T16:36:32.434Z,14.97
2018-11-05T16:39:02.072Z,14.93
2018-11-05T16:41:31.826Z,14.90
2018-11-05T16:44:01.726Z,14.76
2018-11-05T16:46:31.146Z,14.82
2018-11-05T16:49:00.696Z,14.75
2018-11-05T16:51:30.528Z,14.74
2018-11-05T16:54:00.243Z,14.73
2018-11-05T16:56:29.937Z,14.74
2018-11-05T16:58:59.865Z,14.70
2018-11-05T17:01:29.888Z,14.61
2018-11-05T17:03:59.386Z,14.49
2018-11-05T17:06:28.828Z,14.40
2018-11-05T17:08:58.495Z,14.35
2018-11-05T17:11:28.407Z,14.27
2018-11-05T17:13:58.294Z,14.13
2018-11-05T17:16:28.017Z,13.83
2018-11-05T17:18:57.504Z,13.71
2018-11-05T17:21:27.454Z,13.61
2018-11-05T17:23:57.156Z,13.58
2018-11-05T17:26:27.275Z,13.37
2018-11-05T17:28:56.808Z,13.15
2018-11-05T17:31:26.680Z,12.99
2018-11-05T17:33:56.613Z,12.95
2018-11-05T17:36:26.750Z,12.76
2018-11-05T17:38:56.247Z,12.89
2018-11-05T17:41:25.912Z,12.84
2018-11-05T17:43:55.728Z,12.88
2018-11-05T17:46:25.525Z,12.55
2018-11-05T17:48:55.094Z,12.54
2018-11-05T17:51:24.782Z,12.47
2018-11-05T17:53:55.245Z,12.39
2018-11-05T17:56:24.831Z,12.14
2018-11-05T17:58:54.977Z,12.21
2018-11-05T18:01:24.788Z,12.07
2018-11-05T18:03:54.573Z,12.08
2018-11-05T18:06:24.609Z,12.05
2018-11-05T18:08:54.545Z,11.89
2018-11-05T18:11:24.223Z,11.77
2018-11-05T18:13:53.884Z,11.74
2018-11-05T18:16:23.605Z,11.67
2018-11-05T18:18:53.594Z,11.70
2018-11-05T18:21:23.176Z,11.68
2018-11-05T18:23:52.762Z,11.76
2018-11-05T18:26:22.731Z,11.65
2018-11-05T18:28:52.910Z,11.56
2018-11-05T18:31:22.523Z,11.51
2018-11-05T18:33:52.469Z,11.42
2018-11-05T18:36:22.294Z,11.48
2018-11-05T18:38:52.143Z,11.43
2018-11-05T18:41:21.783Z,11.35
2018-11-05T18:43:51.753Z,11.29
2018-11-05T18:46:21.347Z,11.27
2018-11-05T18:48:50.819Z,11.31
2018-11-05T18:51:20.542Z,11.20
2018-11-05T18:53:50.112Z,11.15
2018-11-05T18:56:19.709Z,11.12
2018-11-05T18:58:49.366Z,11.09
2018-11-05T19:01:18.942Z,11.10
2018-11-05T19:03:48.646Z,10.99
2018-11-05T19:06:18.807Z,11.09
2018-11-05T19:08:48.469Z,11.07
2018-11-05T19:11:18.829Z,11.08
2018-11-05T19:13:48.863Z,11.04
2018-11-05T19:16:18.646Z,11.01
2018-11-05T19:18:48.367Z,11.02
2018-11-05T19:21:18.513Z,11.06
2018-11-05T19:23:48.576Z,10.92
2018-11-05T19:26:17.956Z,10.95
2018-11-05T19:28:47.874Z,10.88
2018-11-05T19:31:17.644Z,10.85
2018-11-05T19:33:47.222Z,10.84
2018-11-05T19:36:18.377Z,10.87
2018-11-05T19:38:48.019Z,10.76
2018-11-05T19:41:17.652Z,10.73
2018-11-05T19:43:48.034Z,10.68
2018-11-05T19:46:17.738Z,10.70
2018-11-05T19:48:47.526Z,10.64
2018-11-05T19:51:17.099Z,10.52
2018-11-05T19:53:46.689Z,10.39
2018-11-05T19:56:16.326Z,10.36
2018-11-05T19:58:46.330Z,10.30
2018-11-05T20:01:15.752Z,10.33
2018-11-05T20:03:45.519Z,10.22
2018-11-05T20:06:15.151Z,10.07
2018-11-05T20:08:44.786Z,10.07
2018-11-05T20:11:14.185Z,10.01
2018-11-05T20:13:44.561Z,10.01
2018-11-05T20:16:14.076Z,10.04
2018-11-05T20:18:44.081Z,10.09
2018-11-05T20:21:13.761Z,10.04
2018-11-05T20:23:43.604Z,9.95
2018-11-05T20:26:13.292Z,9.91
2018-11-05T20:28:43.204Z,9.87
2018-11-05T20:31:12.975Z,9.78
2018-11-05T20:33:42.822Z,9.87
2018-11-05T20:36:12.581Z,9.83
2018-11-05T20:38:41.963Z,9.76
2018-11-05T20:41:11.635Z,9.76
2018-11-05T20:43:41.444Z,9.70
2018-11-05T20:46:11.116Z,9.58
2018-11-05T20:48:40.946Z,9.58
2018-11-05T20:51:11.005Z,9.54
2018-11-05T20:53:40.697Z,9.51
2018-11-05T20:56:10.455Z,9.51
2018-11-05T20:58:40.837Z,9.48
2018-11-05T21:01:10.550Z,9.45
2018-11-05T21:03:40.291Z,9.39
2018-11-05T21:06:10.451Z,9.36
2018-11-05T21:08:40.211Z,9.30
2018-11-05T21:11:09.841Z,9.36
2018-11-05T21:13:39.813Z,9.28
2018-11-05T21:16:09.367Z,9.34
2018-11-05T21:18:39.271Z,9.26
2018-11-05T21:21:09.604Z,9.11
2018-11-05T21:23:39.222Z,9.04
2018-11-05T21:26:08.938Z,8.88
2018-11-05T21:28:39.006Z,8.93
2018-11-05T21:31:08.651Z,8.96
2018-11-05T21:33:38.302Z,8.91
2018-11-05T21:36:08.294Z,8.96
2018-11-05T21:38:44.546Z,8.95
2018-11-05T21:41:14.394Z,8.89
2018-11-05T21:43:44.074Z,8.90
2018-11-05T21:46:13.579Z,8.90
2018-11-05T21:48:43.222Z,8.79
2018-11-05T21:51:12.700Z,8.71
2018-11-05T21:53:42.212Z,8.78
2018-11-05T21:56:11.978Z,8.71
2018-11-05T21:58:41.547Z,8.58
2018-11-05T22:01:11.218Z,8.64
2018-11-05T22:03:41.206Z,8.67
2018-11-05T22:06:10.799Z,8.63
2018-11-05T22:08:40.393Z,8.66
2018-11-05T22:11:10.126Z,8.58
2018-11-05T22:13:39.965Z,8.58
2018-11-05T22:16:09.777Z,8.55
2018-11-05T22:18:39.965Z,8.50
2018-11-05T22:21:10.344Z,8.57
2018-11-05T22:23:40.065Z,8.57
2018-11-05T22:26:10.131Z,8.53
2018-11-05T22:28:39.789Z,8.48
2018-11-05T22:31:09.471Z,8.49
2018-11-05T22:33:39.086Z,8.43
2018-11-05T22:36:08.801Z,8.37
2018-11-05T22:38:38.539Z,8.41
2018-11-05T22:41:08.130Z,8.40
2018-11-05T22:43:37.742Z,8.38
2018-11-05T22:46:07.692Z,8.38
2018-11-05T22:48:37.507Z,8.35
2018-11-05T22:51:07.285Z,8.31
2018-11-05T22:53:36.715Z,8.27
2018-11-05T22:56:07.251Z,8.25
2018-11-05T22:58:36.814Z,8.16
2018-11-05T23:01:08.832Z,8.22
2018-11-05T23:03:38.405Z,8.07
2018-11-05T23:06:08.006Z,8.09
2018-11-05T23:08:37.917Z,8.03
2018-11-05T23:11:07.527Z,8.00
2018-11-05T23:13:37.138Z,8.04
2018-11-05T23:16:06.828Z,7.95
2018-11-05T23:18:36.679Z,7.99
2018-11-05T23:21:06.588Z,7.92
2018-11-05T23:23:36.855Z,7.92
2018-11-05T23:26:06.349Z,7.94
2018-11-05T23:28:36.129Z,7.84
2018-11-05T23:31:06.503Z,7.80
2018-11-05T23:33:35.900Z,7.79
2018-11-05T23:36:05.584Z,7.72
2018-11-05T23:38:35.409Z,7.69
2018-11-05T23:41:05.447Z,7.69
2018-11-05T23:43:34.994Z,7.73
2018-11-05T23:46:04.906Z,7.57
2018-11-05T23:48:34.502Z,7.50
2018-11-05T23:51:04.731Z,7.50
2018-11-05T23:53:34.802Z,7.41
2018-11-05T23:56:04.664Z,7.42
2018-11-05T23:58:34.273Z,7.33
